Time;durP1;ratioP1;P1;durP2;ratioP2;P2;SDS_P1;SDS_P2;PMS_P1;PMS_P2;Temp;Humidity;BMP_temperature;BMP_pressure;BME280_temperature;BME280_humidity;BME280_pressure;Samples;Min_cycle;Max_cycle;Signal;HPM_P1;HPM_P2
2023/09/14 00:02:28;;;;;;;7.60;3.83;;;20.60;78.80;;;21.05;51.60;95118.63;5078541;28;20881;-60
2023/09/14 00:04:55;;;;;;;8.93;4.90;;;20.50;78.70;;;21.00;52.18;95113.88;5078554;28;20628;-65
2023/09/14 00:07:22;;;;;;;14.97;5.37;;;20.50;79.00;;;20.98;51.87;95118.59;5083722;28;20946;-66
2023/09/14 00:09:50;;;;;;;12.43;4.70;;;20.50;79.20;;;20.95;52.04;95116.34;5082402;28;20482;-65
2023/09/14 00:12:17;;;;;;;6.57;4.77;;;20.40;79.30;;;20.90;52.08;95116.94;5085626;28;20849;-65
2023/09/14 00:14:44;;;;;;;8.80;5.20;;;20.40;79.30;;;20.89;52.19;95119.78;5087475;28;20470;-60
2023/09/14 00:17:12;;;;;;;7.27;6.13;;;20.40;79.60;;;20.87;51.95;95119.19;5073733;28;20446;-66
2023/09/14 00:19:40;;;;;;;16.57;4.70;;;20.30;79.50;;;20.84;52.09;95119.56;5073428;28;21015;-65
2023/09/14 00:22:08;;;;;;;9.70;4.40;;;20.30;79.50;;;20.83;52.14;95120.59;5084953;28;20461;-65
2023/09/14 00:24:36;;;;;;;8.10;4.93;;;20.30;79.60;;;20.80;52.07;95124.47;5085060;28;20478;-58
2023/09/14 00:27:04;;;;;;;7.43;4.50;;;20.30;79.80;;;20.78;51.79;95127.34;5085473;28;20465;-58
2023/09/14 00:29:31;;;;;;;7.30;4.57;;;20.30;79.40;;;20.74;52.18;95126.09;5085232;28;20568;-66
2023/09/14 00:31:59;;;;;;;9.03;4.90;;;20.30;79.30;;;20.73;52.04;95118.28;5081986;28;20493;-60
2023/09/14 00:34:26;;;;;;;4.83;4.40;;;20.20;79.40;;;20.69;51.72;95128.53;5084645;28;20469;-66
2023/09/14 00:36:54;;;;;;;5.00;4.50;;;20.20;79.40;;;20.68;51.97;95124.22;5084119;28;20977;-58
2023/09/14 00:39:22;;;;;;;4.83;4.00;;;20.20;79.50;;;20.66;51.97;95128.09;5081866;28;20470;-59
2023/09/14 00:41:49;;;;;;;5.00;4.40;;;20.10;79.50;;;20.63;52.16;95123.09;5083989;28;20455;-59
2023/09/14 00:44:16;;;;;;;10.40;3.93;;;20.10;79.70;;;20.60;51.99;95119.81;5079971;28;20486;-64
2023/09/14 00:46:44;;;;;;;8.53;4.33;;;20.10;79.60;;;20.59;52.20;95128.03;5082213;28;20442;-58
2023/09/14 00:49:11;;;;;;;10.40;4.13;;;20.10;79.90;;;20.56;52.49;95120.41;5084312;28;20475;-59
2023/09/14 00:51:38;;;;;;;7.97;5.10;;;20.10;79.90;;;20.54;52.35;95117.09;5083586;28;20548;-60
2023/09/14 00:54:07;;;;;;;9.73;4.63;;;20.00;79.80;;;20.53;51.93;95107.44;5086383;28;21009;-59
2023/09/14 00:56:35;;;;;;;14.73;5.30;;;20.00;79.80;;;20.51;52.14;95114.81;5085809;28;20450;-59
2023/09/14 00:59:05;;;;;;;7.27;4.80;;;20.00;79.80;;;20.48;52.30;95110.69;5085957;28;20490;-59
2023/09/14 01:01:32;;;;;;;11.33;4.00;;;20.00;79.80;;;20.48;52.24;95116.03;5084338;28;20455;-65
2023/09/14 01:04:00;;;;;;;11.67;5.70;;;20.00;80.00;;;20.47;52.47;95117.03;5079712;28;20499;-65
2023/09/14 01:06:27;;;;;;;16.00;4.90;;;20.00;81.00;;;20.47;52.25;95108.22;5080986;28;20576;-59
2023/09/14 01:08:54;;;;;;;7.30;4.20;;;19.90;80.20;;;20.46;52.50;95109.22;5082373;28;20470;-64
2023/09/14 01:11:23;;;;;;;10.37;4.43;;;19.90;80.50;;;20.44;52.39;95103.25;5084109;28;20473;-59
2023/09/14 01:13:56;;;;;;;19.23;6.50;;;19.90;80.30;;;20.42;52.56;95106.94;5080419;28;20495;-66
2023/09/14 01:16:27;;;;;;;5.93;4.70;;;19.90;81.00;;;20.42;52.33;95112.28;5080455;28;20447;-65
2023/09/14 01:18:59;;;;;;;13.63;4.00;;;19.90;80.80;;;20.42;52.74;95106.13;5082669;28;20474;-64
2023/09/14 01:22:01;;;;;;;6.20;4.40;;;19.90;81.20;;;20.42;52.95;95112.28;5081239;28;20463;-66
2023/09/14 01:24:38;;;;;;;6.90;4.23;;;19.90;81.30;;;20.42;52.82;95109.63;5072278;28;20470;-65
2023/09/14 01:27:07;;;;;;;8.33;5.10;;;19.90;81.00;;;20.41;52.60;95115.97;5081162;28;20529;-58
2023/09/14 01:29:35;;;;;;;12.13;4.70;;;19.90;81.50;;;20.41;52.58;95118.63;5083512;28;20481;-67
2023/09/14 01:32:02;;;;;;;9.60;4.43;;;19.90;81.50;;;20.41;52.83;95112.47;5084559;28;20503;-64
2023/09/14 01:34:29;;;;;;;10.00;4.60;;;19.90;81.50;;;20.41;52.65;95115.97;5080255;28;20481;-59
2023/09/14 01:36:58;;;;;;;6.30;5.17;;;19.90;81.80;;;20.40;52.56;95122.34;5083502;28;20462;-58
2023/09/14 01:39:26;;;;;;;5.53;4.33;;;19.90;81.50;;;20.39;52.65;95115.34;5080529;28;20475;-63
2023/09/14 01:41:56;;;;;;;10.77;4.40;;;19.90;81.60;;;20.38;52.84;95123.56;5085833;28;20550;-65
2023/09/14 01:44:26;;;;;;;9.60;5.43;;;19.90;81.80;;;20.38;52.37;95124.38;5080673;28;20463;-65
2023/09/14 01:46:54;;;;;;;10.47;5.10;;;19.90;81.80;;;20.37;52.50;95114.72;5083300;28;20570;-64
2023/09/14 01:49:21;;;;;;;6.00;5.03;;;19.90;81.70;;;20.36;52.40;95114.91;5084595;28;20474;-65
2023/09/14 01:51:48;;;;;;;14.43;4.60;;;19.80;81.40;;;20.35;52.77;95118.59;5086847;28;20451;-65
2023/09/14 01:54:16;;;;;;;6.70;4.63;;;19.80;81.40;;;20.33;52.43;95118.81;5080055;28;20483;-59
2023/09/14 01:56:43;;;;;;;10.40;4.53;;;19.80;81.20;;;20.31;52.74;95123.53;5085169;28;20569;-58
2023/09/14 01:59:10;;;;;;;9.20;5.37;;;19.80;81.10;;;20.29;52.47;95120.19;5079678;28;20475;-64
2023/09/14 02:01:39;;;;;;;12.93;4.97;;;19.80;81.30;;;20.27;52.46;95119.56;5080987;28;20450;-58
2023/09/14 02:04:07;;;;;;;8.20;4.23;;;19.80;81.40;;;20.27;52.27;95116.91;5079314;28;20485;-59
2023/09/14 02:06:34;;;;;;;9.80;4.60;;;19.80;81.10;;;20.26;52.59;95120.59;5073888;28;20457;-60
2023/09/14 02:09:01;;;;;;;6.53;4.30;;;19.70;81.20;;;20.24;52.59;95119.97;5083118;28;20474;-58
2023/09/14 02:11:29;;;;;;;9.00;5.33;;;19.70;81.40;;;20.23;52.66;95121.81;5079438;28;20999;-60
2023/09/14 02:13:56;;;;;;;6.40;4.80;;;19.70;81.60;;;20.22;52.49;95111.31;5083218;28;20509;-67
2023/09/14 02:16:23;;;;;;;9.53;5.00;;;19.70;81.30;;;20.20;52.26;95113.34;5080378;28;20458;-65
2023/09/14 02:18:52;;;;;;;9.53;4.87;;;19.70;81.60;;;20.20;52.32;95118.69;5082465;28;20805;-58
2023/09/14 02:21:20;;;;;;;5.43;4.50;;;19.70;81.60;;;20.20;52.43;95124.88;5082787;28;20446;-64
2023/09/14 02:23:47;;;;;;;6.27;4.33;;;19.70;82.00;;;20.20;52.48;95114.19;5080786;28;20499;-59
2023/09/14 02:26:14;;;;;;;11.13;6.10;;;19.70;82.30;;;20.20;52.79;95124.03;5079366;28;20502;-65
2023/09/14 02:28:42;;;;;;;6.80;4.47;;;19.70;82.00;;;20.18;52.74;95126.06;5081502;28;20485;-59
2023/09/14 02:31:09;;;;;;;21.13;6.07;;;19.70;82.20;;;20.17;52.84;95129.75;5080246;28;20445;-59
2023/09/14 02:33:37;;;;;;;8.73;4.43;;;19.70;82.50;;;20.17;53.13;95124.41;5081204;28;20490;-59
2023/09/14 02:36:06;;;;;;;10.10;5.43;;;19.70;83.50;;;20.13;53.06;95126.66;5080451;28;21047;-66
2023/09/14 02:38:33;;;;;;;12.60;5.67;;;19.70;82.50;;;20.11;53.13;95119.84;5081154;28;21002;-58
2023/09/14 02:41:01;;;;;;;13.63;5.80;;;19.60;82.80;;;20.09;53.34;95119.22;5082722;28;20905;-60
2023/09/14 02:43:28;;;;;;;16.53;6.27;;;19.60;82.90;;;20.04;52.89;95114.47;5082269;28;20910;-58
2023/09/14 02:45:55;;;;;;;11.63;6.00;;;19.60;82.10;;;19.96;53.61;95106.59;5080564;28;20962;-58
2023/09/14 02:48:23;;;;;;;15.53;4.93;;;19.50;82.90;;;19.93;53.57;95109.66;5080489;28;20956;-66
2023/09/14 02:50:50;;;;;;;12.60;4.93;;;19.40;83.60;;;19.93;53.54;95106.97;5081274;28;20453;-65
2023/09/14 02:53:18;;;;;;;9.00;5.50;;;19.40;84.10;;;19.93;53.51;95107.78;5080225;28;20495;-59
2023/09/14 02:55:46;;;;;;;12.93;6.07;;;19.40;84.60;;;19.92;53.59;95097.31;5081103;28;20459;-59
2023/09/14 02:58:13;;;;;;;19.67;5.57;;;19.40;84.40;;;19.94;53.81;95104.13;5078594;28;20454;-60
2023/09/14 03:00:40;;;;;;;13.80;5.73;;;19.40;84.70;;;19.96;54.19;95110.06;5079485;28;20455;-59
2023/09/14 03:03:09;;;;;;;11.23;4.90;;;19.40;85.50;;;19.98;53.87;95117.91;5081343;28;20454;-60
2023/09/14 03:05:37;;;;;;;14.50;5.70;;;19.50;85.60;;;19.99;54.07;95115.03;5079615;28;20578;-59
2023/09/14 03:08:05;;;;;;;12.57;5.73;;;19.50;85.70;;;19.99;54.06;95112.38;5081563;28;20824;-60
2023/09/14 03:10:33;;;;;;;7.20;5.60;;;19.50;85.60;;;20.01;54.04;95114.84;5080429;28;20458;-66
2023/09/14 03:13:00;;;;;;;13.97;6.40;;;19.50;85.60;;;20.02;54.02;95116.50;5075604;28;20487;-60
2023/09/14 03:15:28;;;;;;;13.23;5.80;;;19.50;85.70;;;20.02;53.88;95117.31;5078201;28;20459;-65
2023/09/14 03:17:55;;;;;;;8.70;5.00;;;19.50;85.70;;;20.03;54.00;95124.31;5080231;28;20499;-65
2023/09/14 03:20:22;;;;;;;15.10;5.30;;;19.50;85.70;;;20.03;54.15;95116.31;5078451;28;20467;-61
2023/09/14 03:22:50;;;;;;;6.40;5.00;;;19.50;85.80;;;20.04;54.36;95125.94;5084393;28;20450;-58
2023/09/14 03:25:17;;;;;;;11.67;5.40;;;19.50;85.80;;;20.05;54.49;95116.94;5078660;28;20490;-60
2023/09/14 03:27:46;;;;;;;19.87;5.20;;;19.50;85.70;;;20.05;53.93;95121.47;5078451;28;20841;-66
2023/09/14 03:30:13;;;;;;;10.73;5.13;;;19.50;85.80;;;20.05;53.71;95130.28;5070500;28;20476;-59
2023/09/14 03:32:41;;;;;;;12.07;5.50;;;19.50;85.70;;;20.03;53.96;95124.31;5078376;28;20792;-60
2023/09/14 03:35:08;;;;;;;8.60;5.50;;;19.50;85.80;;;20.03;54.09;95118.13;5070451;28;20471;-64
2023/09/14 03:37:36;;;;;;;11.53;5.37;;;19.50;85.80;;;20.01;53.70;95117.50;5070009;28;20451;-58
2023/09/14 03:40:08;;;;;;;7.00;4.70;;;19.50;85.90;;;20.00;54.40;95119.38;5069842;28;20475;-64
2023/09/14 03:42:35;;;;;;;16.33;6.10;;;19.50;85.80;;;19.97;54.22;95122.41;5082479;28;20966;-59
2023/09/14 03:45:05;;;;;;;19.73;5.80;;;19.50;86.00;;;19.95;54.15;95121.75;5083775;28;20467;-60
2023/09/14 03:47:32;;;;;;;9.90;6.30;;;19.50;86.20;;;19.94;53.80;95113.94;5082774;28;20446;-65
2023/09/14 03:49:59;;;;;;;10.63;5.37;;;19.40;85.60;;;19.91;53.72;95115.19;5082503;28;20997;-65
2023/09/14 03:52:27;;;;;;;14.00;6.37;;;19.40;85.50;;;19.85;53.82;95115.94;5082166;28;20853;-64
2023/09/14 03:54:54;;;;;;;12.23;6.20;;;19.40;85.50;;;19.78;54.45;95123.88;5087656;28;20959;-65
2023/09/14 03:57:22;;;;;;;12.27;6.40;;;19.30;85.50;;;19.71;54.21;95121.13;5086324;28;20827;-65
2023/09/14 03:59:49;;;;;;;17.37;5.90;;;19.30;86.50;;;19.67;54.48;95130.53;5082796;28;20561;-59
2023/09/14 04:02:18;;;;;;;18.63;6.60;;;19.20;86.70;;;19.66;54.63;95130.72;5086449;28;20760;-63
2023/09/14 04:04:45;;;;;;;13.17;5.87;;;19.20;87.20;;;19.63;54.36;95134.59;5085140;28;20466;-63
2023/09/14 04:07:12;;;;;;;20.07;7.00;;;19.20;87.20;;;19.58;54.60;95137.00;5080084;28;20478;-60
2023/09/14 04:09:41;;;;;;;16.07;5.87;;;19.10;87.10;;;19.52;54.64;95129.75;5084741;28;21213;-64
2023/09/14 04:12:09;;;;;;;13.87;6.17;;;19.10;87.20;;;19.48;54.57;95136.47;5082569;28;20954;-64
2023/09/14 04:14:36;;;;;;;10.93;6.87;;;19.00;87.50;;;19.44;54.78;95132.53;5086808;28;20493;-58
2023/09/14 04:17:04;;;;;;;10.80;7.30;;;19.00;87.70;;;19.44;55.17;95140.53;5087711;28;20457;-60
2023/09/14 04:19:33;;;;;;;11.97;6.30;;;19.00;88.50;;;19.44;55.17;95146.72;5087098;28;20476;-64
2023/09/14 04:22:00;;;;;;;13.97;7.50;;;19.00;88.60;;;19.43;55.23;95147.72;5084312;28;20451;-65
2023/09/14 04:24:27;;;;;;;15.27;6.37;;;19.00;88.50;;;19.43;55.48;95154.91;5086816;28;20682;-64
2023/09/14 04:26:54;;;;;;;13.13;7.17;;;18.90;89.10;;;19.41;55.15;95147.09;5083531;28;20952;-60
2023/09/14 04:29:22;;;;;;;9.90;6.70;;;19.00;89.40;;;19.42;55.20;95148.72;5083451;28;20473;-64
2023/09/14 04:31:49;;;;;;;14.50;7.10;;;19.00;89.30;;;19.44;55.32;95145.84;5083738;28;20939;-63
2023/09/14 04:34:16;;;;;;;26.77;8.07;;;18.90;90.00;;;19.47;55.41;95153.50;5083485;28;20528;-60
2023/09/14 04:36:45;;;;;;;16.50;7.60;;;19.00;90.10;;;19.48;55.25;95152.47;5083855;28;20494;-64
2023/09/14 04:39:12;;;;;;;14.47;7.13;;;19.00;90.10;;;19.51;56.15;95152.09;5083408;28;20477;-59
2023/09/14 04:41:39;;;;;;;20.13;7.10;;;19.00;90.60;;;19.52;55.85;95149.25;5080709;28;20447;-64
2023/09/14 04:44:07;;;;;;;36.03;7.17;;;19.10;90.50;;;19.56;55.70;95149.69;5083350;28;20843;-58
2023/09/14 04:46:34;;;;;;;18.07;7.10;;;19.10;90.60;;;19.60;55.80;95152.84;5082342;28;20451;-59
2023/09/14 04:49:02;;;;;;;15.90;7.57;;;19.10;90.60;;;19.62;55.98;95150.78;5083186;28;20629;-58
2023/09/14 04:51:30;;;;;;;17.17;6.93;;;19.10;90.60;;;19.66;56.03;95155.56;5085948;28;20449;-60
2023/09/14 04:54:00;;;;;;;37.47;9.70;;;19.20;90.70;;;19.73;55.78;95162.81;5079107;28;20501;-65
2023/09/14 04:56:27;;;;;;;24.43;7.50;;;19.20;91.00;;;19.76;55.88;95149.91;5081582;28;21006;-59
2023/09/14 04:58:54;;;;;;;22.63;7.20;;;19.30;90.90;;;19.81;56.51;95158.19;5086393;28;20616;-64
2023/09/14 05:01:22;;;;;;;19.50;8.13;;;19.30;91.30;;;19.87;55.99;95156.59;5082520;28;20576;-59
2023/09/14 05:03:49;;;;;;;22.60;8.10;;;19.40;91.30;;;19.95;55.85;95158.31;5083439;28;20552;-64
2023/09/14 05:06:16;;;;;;;23.03;7.33;;;19.40;91.40;;;20.02;56.08;95159.22;5084210;28;21054;-64
2023/09/14 05:08:44;;;;;;;26.67;7.77;;;19.50;91.30;;;20.09;55.85;95156.59;5083096;28;20493;-58
2023/09/14 05:11:12;;;;;;;22.73;6.83;;;19.60;91.20;;;20.20;55.43;95166.75;5080762;28;21017;-64
2023/09/14 05:13:40;;;;;;;28.60;8.37;;;19.60;91.00;;;20.32;55.42;95159.88;5072450;28;20888;-63
2023/09/14 05:16:07;;;;;;;27.10;7.90;;;19.80;91.00;;;20.43;55.03;95171.88;5081873;28;20455;-59
2023/09/14 05:18:34;;;;;;;14.50;6.53;;;19.90;90.60;;;20.52;54.37;95167.22;5081225;28;20565;-59
2023/09/14 05:21:01;;;;;;;39.17;7.30;;;20.00;89.50;;;20.54;54.09;95166.03;5081496;28;20455;-59
2023/09/14 05:23:30;;;;;;;17.50;7.00;;;20.10;88.40;;;20.58;54.13;95169.13;5084035;28;20957;-60
2023/09/14 05:25:57;;;;;;;13.37;6.23;;;20.10;88.70;;;20.63;53.83;95165.88;5083525;28;20461;-65
2023/09/14 05:28:25;;;;;;;16.17;7.33;;;20.10;87.70;;;20.67;53.89;95165.31;5083167;28;20458;-59
2023/09/14 05:30:53;;;;;;;25.40;7.77;;;20.10;88.00;;;20.73;53.77;95164.53;5080404;28;20455;-63
2023/09/14 05:33:20;;;;;;;22.53;8.10;;;20.20;88.80;;;20.81;54.14;95170.75;5085611;28;20450;-59
2023/09/14 05:35:48;;;;;;;17.33;6.97;;;20.20;89.30;;;20.90;54.44;95167.72;5081776;28;20509;-65
2023/09/14 05:38:16;;;;;;;23.07;8.27;;;20.40;89.90;;;20.98;54.30;95164.06;5086675;28;20466;-57
2023/09/14 05:40:43;;;;;;;25.90;8.20;;;20.40;89.40;;;21.11;54.03;95166.78;5084028;28;20481;-62
2023/09/14 05:43:10;;;;;;;28.83;9.53;;;20.60;89.20;;;21.25;53.44;95161.53;5083022;28;20989;-63
2023/09/14 05:45:41;;;;;;;26.37;9.53;;;20.70;88.40;;;21.38;53.61;95169.63;5085163;28;20551;-60
2023/09/14 05:48:08;;;;;;;29.00;10.37;;;20.80;87.80;;;21.53;53.40;95174.00;5087255;28;20533;-63
2023/09/14 05:50:36;;;;;;;31.53;10.37;;;20.90;87.40;;;21.68;52.75;95169.31;5080477;28;21012;-64
2023/09/14 05:53:03;;;;;;;25.43;10.50;;;21.10;87.30;;;21.81;52.54;95172.06;5083426;28;20449;-59
2023/09/14 05:55:30;;;;;;;21.90;9.20;;;21.30;85.90;;;21.95;52.43;95169.38;5081439;28;21031;-58
2023/09/14 05:57:57;;;;;;;21.83;9.90;;;21.30;84.70;;;22.03;51.93;95167.34;5080643;28;20985;-64
2023/09/14 06:00:25;;;;;;;26.43;9.30;;;21.40;84.00;;;22.12;51.48;95165.31;5080949;28;20471;-59
2023/09/14 06:02:53;;;;;;;28.03;7.40;;;21.50;83.10;;;22.22;51.33;95161.41;5081092;28;20448;-65
2023/09/14 06:05:21;;;;;;;28.00;9.67;;;21.60;82.50;;;22.33;50.97;95166.16;5078413;28;21213;-60
2023/09/14 06:07:48;;;;;;;22.20;9.83;;;21.70;82.20;;;22.43;51.26;95169.25;5083041;28;20442;-60
2023/09/14 06:10:16;;;;;;;25.90;10.80;;;21.80;81.70;;;22.53;50.49;95169.66;5080919;28;20467;-59
2023/09/14 06:12:44;;;;;;;27.80;9.57;;;21.90;81.30;;;22.63;50.46;95165.75;5082015;28;20445;-64
2023/09/14 06:15:11;;;;;;;33.50;10.03;;;22.00;80.60;;;22.73;50.45;95158.09;5080258;28;20590;-60
2023/09/14 06:17:39;;;;;;;22.83;7.80;;;22.10;79.90;;;22.85;50.26;95161.81;5081129;28;20511;-57
2023/09/14 06:20:09;;;;;;;28.77;8.07;;;22.30;79.50;;;22.97;49.98;95164.66;5080092;28;20835;-61
2023/09/14 06:22:37;;;;;;;18.93;7.03;;;22.40;78.70;;;23.10;49.26;95161.16;5081582;28;20974;-64
2023/09/14 06:25:05;;;;;;;20.73;7.00;;;22.50;78.10;;;23.22;49.44;95166.69;5081071;28;20862;-59
2023/09/14 06:27:32;;;;;;;20.57;7.27;;;22.60;77.40;;;23.32;48.50;95159.00;5079494;28;20919;-65
2023/09/14 06:30:00;;;;;;;18.30;6.93;;;22.70;76.70;;;23.42;48.57;95171.97;5081300;28;20497;-59
2023/09/14 06:32:27;;;;;;;14.30;5.67;;;22.80;76.20;;;23.53;48.02;95176.69;5079604;28;20446;-60
2023/09/14 06:34:54;;;;;;;14.57;6.13;;;22.90;75.80;;;23.66;47.91;95172.31;5081469;28;21033;-57
2023/09/14 06:37:23;;;;;;;12.87;6.00;;;23.00;75.70;;;23.79;47.88;95180.28;5079234;28;20451;-60
2023/09/14 06:39:50;;;;;;;11.47;6.20;;;23.10;75.10;;;23.91;47.56;95183.97;5083960;28;20549;-58
2023/09/14 06:42:17;;;;;;;23.40;6.53;;;23.30;74.20;;;24.02;47.45;95184.31;5081099;28;20503;-58
2023/09/14 06:44:45;;;;;;;10.97;5.83;;;23.40;73.20;;;24.14;46.77;95185.28;5078808;28;20532;-58
2023/09/14 06:47:12;;;;;;;25.40;5.90;;;23.50;72.60;;;24.28;46.80;95186.84;5081644;28;20468;-59
2023/09/14 06:49:39;;;;;;;14.63;5.90;;;23.70;72.20;;;24.46;46.14;95191.47;5078034;28;20478;-59
2023/09/14 06:52:07;;;;;;;18.83;6.30;;;23.80;71.50;;;24.68;46.38;95193.81;5078673;28;20496;-64
2023/09/14 06:54:35;;;;;;;23.70;6.40;;;24.00;70.90;;;24.96;45.88;95195.22;5069634;28;20501;-59
2023/09/14 06:57:03;;;;;;;31.17;5.57;;;24.30;70.60;;;25.24;45.51;95194.72;5077082;28;20445;-65
2023/09/14 06:59:30;;;;;;;13.03;5.03;;;24.50;69.60;;;25.53;44.41;95190.47;5070132;28;21026;-59
2023/09/14 07:01:58;;;;;;;13.60;5.03;;;24.80;68.90;;;25.80;44.16;95192.84;5069765;28;20482;-60
2023/09/14 07:04:25;;;;;;;9.83;5.40;;;25.10;67.80;;;26.02;43.93;95193.19;5069525;28;20463;-63
2023/09/14 07:06:52;;;;;;;17.53;6.70;;;25.30;67.10;;;26.27;43.55;95192.22;5069591;28;20519;-60
2023/09/14 07:09:19;;;;;;;14.43;6.20;;;25.60;66.10;;;26.52;42.82;95199.31;5073983;28;20837;-59
2023/09/14 07:11:48;;;;;;;20.60;6.30;;;25.80;65.20;;;26.74;42.61;95194.19;5080915;28;20953;-63
2023/09/14 07:14:15;;;;;;;18.60;5.13;;;26.00;64.80;;;26.89;42.04;95197.25;5076386;28;20905;-63
2023/09/14 07:16:43;;;;;;;23.97;5.90;;;26.20;63.60;;;27.01;41.54;95189.97;5080509;28;20446;-59
2023/09/14 07:19:10;;;;;;;11.83;4.93;;;26.30;62.90;;;27.17;41.62;95193.88;5079808;28;21098;-61
2023/09/14 07:21:37;;;;;;;13.30;4.50;;;26.50;62.70;;;27.29;40.96;95184.91;5081719;28;20501;-61
2023/09/14 07:24:06;;;;;;;15.83;4.30;;;26.60;61.50;;;27.42;40.21;95200.91;5079674;28;20497;-60
2023/09/14 07:26:35;;;;;;;10.07;4.40;;;26.70;60.30;;;27.57;40.42;95194.19;5080605;28;20576;-65
2023/09/14 07:29:04;;;;;;;15.17;4.63;;;26.90;59.90;;;27.74;40.12;95203.19;5079421;28;20641;-64
2023/09/14 07:31:31;;;;;;;26.73;5.00;;;27.00;59.80;;;27.98;40.08;95208.53;5082162;28;20457;-65
2023/09/14 07:33:59;;;;;;;10.10;5.00;;;27.20;59.60;;;28.28;39.68;95213.69;5080091;28;21072;-64
2023/09/14 07:36:26;;;;;;;27.47;5.67;;;27.50;59.20;;;28.60;39.29;95205.09;5079838;28;21021;-61
2023/09/14 07:38:53;;;;;;;21.90;4.50;;;27.90;58.70;;;28.97;38.65;95221.66;5079856;28;20465;-64
2023/09/14 07:41:21;;;;;;;19.00;5.57;;;28.20;58.30;;;29.38;38.75;95205.22;5080160;28;20445;-63
2023/09/14 07:43:48;;;;;;;21.37;4.40;;;28.70;58.00;;;29.80;37.99;95206.59;5082871;28;20497;-60
2023/09/14 07:46:16;;;;;;;15.70;4.80;;;29.10;56.80;;;30.20;37.70;95202.69;5083098;28;20241;-64
2023/09/14 07:48:44;;;;;;;13.00;4.37;;;29.50;56.00;;;30.51;36.34;95209.28;5084926;28;20294;-64
2023/09/14 07:51:11;;;;;;;24.27;4.47;;;29.90;55.30;;;30.78;36.75;95205.69;5080974;28;20211;-65
2023/09/14 07:53:38;;;;;;;11.20;5.20;;;30.30;54.40;;;30.99;35.88;95205.91;5083881;28;20280;-64
2023/09/14 07:56:06;;;;;;;20.00;5.13;;;30.50;53.70;;;31.32;35.92;95199.31;5082060;28;20774;-64
2023/09/14 07:58:33;;;;;;;24.13;4.70;;;30.80;53.40;;;31.70;35.15;95199.25;5082450;28;20625;-64
2023/09/14 08:01:00;;;;;;;19.95;5.05;;;31.10;53.10;;;32.14;34.83;95199.72;5078595;28;20735;-65
2023/09/14 08:03:30;;;;;;;17.63;4.32;;;31.60;52.30;;;32.58;34.33;95197.59;5080664;28;20617;-65
2023/09/14 08:05:58;;;;;;;14.18;4.03;;;31.90;52.00;;;32.93;33.63;95193.31;5080988;28;20208;-65
2023/09/14 08:08:25;;;;;;;11.90;4.90;;;32.30;50.70;;;33.27;33.07;95192.75;5080557;28;20651;-65
2023/09/14 08:10:53;;;;;;;19.10;4.18;;;32.70;50.40;;;33.57;32.71;95181.75;5081966;28;20237;-65
2023/09/14 08:13:23;;;;;;;23.05;4.90;;;33.00;49.00;;;33.87;32.21;95190.94;5078287;28;20231;-65
2023/09/14 08:15:50;;;;;;;16.85;5.18;;;33.30;48.80;;;34.17;31.87;95194.59;5080835;28;20242;-63
2023/09/14 08:18:18;;;;;;;26.80;4.75;;;33.70;48.00;;;34.47;31.79;95181.88;5077911;28;20840;-65
2023/09/14 08:20:47;;;;;;;10.48;5.72;;;34.00;47.60;;;34.73;30.25;95184.44;5081348;28;20653;-65
2023/09/14 08:23:16;;;;;;;18.80;5.18;;;34.30;46.70;;;34.87;31.02;95182.69;5080845;28;20652;-64
2023/09/14 08:25:44;;;;;;;17.58;5.18;;;34.50;46.20;;;34.95;29.79;95187.56;5077884;28;20212;-65
2023/09/14 08:28:13;;;;;;;27.88;5.57;;;34.60;45.90;;;35.00;30.46;95173.84;5082798;28;20206;-67
2023/09/14 08:30:41;;;;;;;29.17;5.20;;;34.70;45.10;;;35.17;29.99;95183.53;5082187;28;20586;-65
2023/09/14 08:33:10;;;;;;;30.67;5.57;;;34.80;44.90;;;35.40;29.82;95181.13;5084991;28;20294;-60
2023/09/14 08:35:38;;;;;;;22.15;7.07;;;34.90;44.80;;;35.59;29.50;95189.41;5081888;28;20239;-60
2023/09/14 08:38:07;;;;;;;38.60;8.05;;;35.10;44.70;;;35.70;28.87;95186.25;5083930;28;20211;-66
2023/09/14 08:40:34;;;;;;;25.50;5.03;;;35.20;44.50;;;35.73;28.60;95180.19;5085599;28;20215;-64
2023/09/14 08:43:02;;;;;;;21.42;5.00;;;35.20;43.80;;;35.71;29.27;95176.94;5084746;28;20203;-64
2023/09/14 08:45:31;;;;;;;16.48;4.88;;;35.10;43.50;;;35.64;29.43;95171.00;5081747;28;20249;-64
2023/09/14 08:47:59;;;;;;;9.75;4.20;;;35.10;43.70;;;35.59;29.28;95176.53;5084609;28;20199;-64
2023/09/14 08:50:29;;;;;;;15.50;5.80;;;35.00;43.70;;;35.50;29.18;95170.09;5081272;28;20227;-64
2023/09/14 08:52:56;;;;;;;10.88;4.75;;;34.90;43.60;;;35.34;28.97;95162.03;5083343;28;20269;-59
2023/09/14 08:55:28;;;;;;;10.55;5.18;;;34.70;43.70;;;35.15;28.67;95161.13;5083261;28;20231;-60
2023/09/14 08:57:55;;;;;;;8.50;4.20;;;34.50;43.70;;;34.95;29.46;95159.38;5081462;28;20246;-60
2023/09/14 09:00:22;;;;;;;7.50;5.18;;;34.40;43.80;;;34.72;29.07;95150.00;5084744;28;20219;-66
2023/09/14 09:02:52;;;;;;;14.57;4.85;;;34.20;43.90;;;34.45;29.06;95141.19;5088376;28;20203;-66
2023/09/14 09:05:20;;;;;;;12.60;4.78;;;33.80;43.70;;;34.20;29.20;95139.44;5086146;28;20344;-60
2023/09/14 09:07:48;;;;;;;17.27;5.47;;;33.60;43.80;;;33.96;29.56;95122.94;5077460;28;20200;-59
2023/09/14 09:10:20;;;;;;;18.33;4.45;;;33.40;44.40;;;33.71;29.90;95116.53;5084047;28;20230;-64
2023/09/14 09:12:50;;;;;;;22.77;5.95;;;33.10;44.40;;;33.50;29.73;95114.97;5081630;28;20199;-65
2023/09/14 09:15:17;;;;;;;14.73;5.70;;;32.90;44.90;;;33.31;30.21;95118.31;5087656;28;20255;-59
2023/09/14 09:17:45;;;;;;;16.30;5.40;;;32.70;45.00;;;33.22;30.56;95122.69;5086089;28;20584;-61
2023/09/14 09:20:22;;;;;;;23.83;5.32;;;32.50;45.30;;;33.19;30.45;95117.78;5085499;28;20215;-64
2023/09/14 09:22:50;;;;;;;13.70;5.53;;;32.50;45.40;;;33.17;30.20;95118.03;5086365;28;20271;-60
2023/09/14 09:25:18;;;;;;;24.83;6.88;;;32.40;45.50;;;33.16;30.76;95119.13;5085620;28;20216;-61
2023/09/14 09:27:45;;;;;;;12.82;5.78;;;32.40;45.50;;;33.18;30.51;95119.69;5080679;28;20282;-60
2023/09/14 09:30:14;;;;;;;21.60;5.07;;;32.40;45.60;;;33.23;30.63;95111.50;5081345;28;20220;-63
2023/09/14 09:32:43;;;;;;;15.10;5.60;;;32.40;45.90;;;33.29;30.99;95111.47;5078562;28;20200;-59
2023/09/14 09:35:20;;;;;;;14.00;5.03;;;32.50;45.90;;;33.34;30.56;95111.44;5084654;28;20227;-66
2023/09/14 09:37:48;;;;;;;13.25;4.60;;;32.50;45.80;;;33.41;30.76;95107.34;5083631;28;20199;-66
2023/09/14 09:40:20;;;;;;;21.55;6.70;;;32.60;45.70;;;33.49;30.37;95116.84;5080432;28;20224;-61
2023/09/14 09:42:47;;;;;;;19.40;5.15;;;32.70;45.70;;;33.61;30.56;95111.06;5083590;28;20233;-59
2023/09/14 09:45:16;;;;;;;14.20;5.53;;;32.80;45.50;;;33.69;30.03;95106.94;5080186;28;20713;-66
2023/09/14 09:47:44;;;;;;;14.25;4.07;;;32.90;45.30;;;33.70;29.90;95114.84;5083540;28;20200;-60
2023/09/14 09:50:12;;;;;;;13.88;4.50;;;32.90;44.90;;;33.74;29.95;95109.69;5080407;28;20262;-66
2023/09/14 09:52:40;;;;;;;10.25;5.07;;;32.90;44.80;;;33.85;29.50;95105.81;5083122;28;20199;-65
2023/09/14 09:55:08;;;;;;;26.60;5.68;;;33.00;44.80;;;33.95;29.40;95103.00;5080945;28;20243;-67
2023/09/14 09:57:37;;;;;;;19.58;5.75;;;33.10;44.70;;;34.10;29.30;95101.28;5084961;28;20230;-60
2023/09/14 10:00:12;;;;;;;11.20;4.93;;;33.30;44.80;;;34.29;29.14;95091.34;5080550;28;20752;-65
2023/09/14 10:02:41;;;;;;;10.48;4.30;;;33.40;44.70;;;34.46;29.08;95098.31;5080940;28;20199;-66
2023/09/14 10:05:09;;;;;;;11.20;4.95;;;33.60;44.20;;;34.56;29.31;95100.94;5080170;28;20740;-66
2023/09/14 10:07:39;;;;;;;7.53;4.60;;;33.70;44.10;;;34.65;29.09;95087.50;5083419;28;20580;-60
2023/09/14 10:10:08;;;;;;;11.75;4.38;;;33.80;43.60;;;34.74;29.07;95098.63;5080482;28;20224;-66
2023/09/14 10:12:39;;;;;;;21.10;5.50;;;33.90;43.50;;;34.86;29.22;95088.16;5082849;28;20196;-66
2023/09/14 10:15:08;;;;;;;13.85;4.28;;;34.00;43.60;;;34.97;29.04;95084.19;5080587;28;20242;-60
2023/09/14 10:17:35;;;;;;;26.40;5.30;;;34.10;43.10;;;35.08;28.03;95071.22;5082715;28;20227;-60